sensor_id;sensor_type;location;lat;lon;timestamp;temperature;humidity
70456;DHT22;57916;51.996;5.180;2023-04-03T00:00:33;8.70;58.40
70456;DHT22;57916;51.996;5.180;2023-04-03T00:03:00;8.60;59.10
70456;DHT22;57916;51.996;5.180;2023-04-03T00:05:27;8.60;58.50
70456;DHT22;57916;51.996;5.180;2023-04-03T00:07:54;8.60;59.00
70456;DHT22;57916;51.996;5.180;2023-04-03T00:10:21;8.60;59.20
70456;DHT22;57916;51.996;5.180;2023-04-03T00:12:48;8.60;58.90
70456;DHT22;57916;51.996;5.180;2023-04-03T00:15:15;8.60;58.80
70456;DHT22;57916;51.996;5.180;2023-04-03T00:17:42;8.60;58.60
70456;DHT22;57916;51.996;5.180;2023-04-03T00:20:10;8.60;58.40
70456;DHT22;57916;51.996;5.180;2023-04-03T00:22:37;8.50;58.80
70456;DHT22;57916;51.996;5.180;2023-04-03T00:25:04;8.60;58.70
70456;DHT22;57916;51.996;5.180;2023-04-03T00:27:31;8.50;58.40
70456;DHT22;57916;51.996;5.180;2023-04-03T00:29:58;8.50;58.80
70456;DHT22;57916;51.996;5.180;2023-04-03T00:32:25;8.50;58.80
70456;DHT22;57916;51.996;5.180;2023-04-03T00:34:52;8.50;58.70
70456;DHT22;57916;51.996;5.180;2023-04-03T00:37:19;8.50;58.50
70456;DHT22;57916;51.996;5.180;2023-04-03T00:39:46;8.50;58.40
70456;DHT22;57916;51.996;5.180;2023-04-03T00:42:13;8.40;58.60
70456;DHT22;57916;51.996;5.180;2023-04-03T00:47:09;8.30;58.70
70456;DHT22;57916;51.996;5.180;2023-04-03T00:49:38;8.30;58.80
70456;DHT22;57916;51.996;5.180;2023-04-03T00:52:11;8.20;58.90
70456;DHT22;57916;51.996;5.180;2023-04-03T00:54:40;8.20;59.00
70456;DHT22;57916;51.996;5.180;2023-04-03T00:57:10;8.10;59.10
70456;DHT22;57916;51.996;5.180;2023-04-03T00:59:44;8.10;59.20
70456;DHT22;57916;51.996;5.180;2023-04-03T01:02:15;8.00;59.40
70456;DHT22;57916;51.996;5.180;2023-04-03T01:04:43;7.90;59.60
70456;DHT22;57916;51.996;5.180;2023-04-03T01:07:16;7.80;59.90
70456;DHT22;57916;51.996;5.180;2023-04-03T01:09:47;7.80;60.00
70456;DHT22;57916;51.996;5.180;2023-04-03T01:12:19;7.70;60.10
70456;DHT22;57916;51.996;5.180;2023-04-03T01:14:50;7.70;60.40
70456;DHT22;57916;51.996;5.180;2023-04-03T01:25:18;7.40;60.80
70456;DHT22;57916;51.996;5.180;2023-04-03T01:27:45;7.30;60.90
70456;DHT22;57916;51.996;5.180;2023-04-03T01:30:14;7.20;61.10
70456;DHT22;57916;51.996;5.180;2023-04-03T01:32:43;7.10;61.40
70456;DHT22;57916;51.996;5.180;2023-04-03T01:35:12;7.10;61.60
70456;DHT22;57916;51.996;5.180;2023-04-03T01:37:39;7.10;61.90
70456;DHT22;57916;51.996;5.180;2023-04-03T01:40:06;7.00;62.00
70456;DHT22;57916;51.996;5.180;2023-04-03T01:42:34;7.00;62.30
70456;DHT22;57916;51.996;5.180;2023-04-03T01:45:01;6.90;62.30
70456;DHT22;57916;51.996;5.180;2023-04-03T01:47:28;6.90;62.70
70456;DHT22;57916;51.996;5.180;2023-04-03T01:49:55;6.80;62.70
70456;DHT22;57916;51.996;5.180;2023-04-03T01:52:22;6.90;62.90
70456;DHT22;57916;51.996;5.180;2023-04-03T01:54:50;6.80;63.00
70456;DHT22;57916;51.996;5.180;2023-04-03T01:57:17;6.80;63.10
70456;DHT22;57916;51.996;5.180;2023-04-03T01:59:44;6.80;63.20
70456;DHT22;57916;51.996;5.180;2023-04-03T02:02:11;6.80;63.50
70456;DHT22;57916;51.996;5.180;2023-04-03T02:04:39;6.80;63.50
70456;DHT22;57916;51.996;5.180;2023-04-03T02:07:06;6.80;63.40
70456;DHT22;57916;51.996;5.180;2023-04-03T02:09:33;6.80;63.40
70456;DHT22;57916;51.996;5.180;2023-04-03T02:12:00;6.70;63.50
70456;DHT22;57916;51.996;5.180;2023-04-03T02:14:27;6.70;63.70
70456;DHT22;57916;51.996;5.180;2023-04-03T02:16:54;6.70;63.80
70456;DHT22;57916;51.996;5.180;2023-04-03T02:19:22;6.70;63.70
70456;DHT22;57916;51.996;5.180;2023-04-03T02:21:49;6.70;63.70
70456;DHT22;57916;51.996;5.180;2023-04-03T02:24:16;6.70;63.80
70456;DHT22;57916;51.996;5.180;2023-04-03T02:26:43;6.70;63.80
70456;DHT22;57916;51.996;5.180;2023-04-03T02:29:10;6.60;63.80
70456;DHT22;57916;51.996;5.180;2023-04-03T02:31:37;6.60;64.00
70456;DHT22;57916;51.996;5.180;2023-04-03T02:34:04;6.50;64.20
70456;DHT22;57916;51.996;5.180;2023-04-03T02:36:33;6.50;64.40
70456;DHT22;57916;51.996;5.180;2023-04-03T02:39:04;6.50;64.60
70456;DHT22;57916;51.996;5.180;2023-04-03T02:41:30;6.50;64.80
70456;DHT22;57916;51.996;5.180;2023-04-03T02:44:06;6.50;64.80
70456;DHT22;57916;51.996;5.180;2023-04-03T02:46:33;6.40;64.70
70456;DHT22;57916;51.996;5.180;2023-04-03T02:49:01;6.40;64.70
70456;DHT22;57916;51.996;5.180;2023-04-03T02:51:28;6.40;64.80
70456;DHT22;57916;51.996;5.180;2023-04-03T02:53:56;6.40;65.00
70456;DHT22;57916;51.996;5.180;2023-04-03T02:56:26;6.50;65.10
70456;DHT22;57916;51.996;5.180;2023-04-03T02:58:53;6.50;65.10
70456;DHT22;57916;51.996;5.180;2023-04-03T03:01:21;6.40;65.00
70456;DHT22;57916;51.996;5.180;2023-04-03T03:03:48;6.40;65.00
70456;DHT22;57916;51.996;5.180;2023-04-03T03:06:16;6.40;65.10
70456;DHT22;57916;51.996;5.180;2023-04-03T03:08:44;6.30;65.20
70456;DHT22;57916;51.996;5.180;2023-04-03T03:11:11;6.30;65.30
70456;DHT22;57916;51.996;5.180;2023-04-03T03:13:38;6.30;65.50
70456;DHT22;57916;51.996;5.180;2023-04-03T03:16:06;6.20;65.50
70456;DHT22;57916;51.996;5.180;2023-04-03T03:18:34;6.20;65.60
70456;DHT22;57916;51.996;5.180;2023-04-03T03:21:02;6.20;65.70
70456;DHT22;57916;51.996;5.180;2023-04-03T03:23:31;6.20;65.80
70456;DHT22;57916;51.996;5.180;2023-04-03T03:26:01;6.20;66.10
70456;DHT22;57916;51.996;5.180;2023-04-03T03:28:29;6.20;67.00
70456;DHT22;57916;51.996;5.180;2023-04-03T03:30:57;6.30;66.30
70456;DHT22;57916;51.996;5.180;2023-04-03T03:33:25;6.30;66.20
70456;DHT22;57916;51.996;5.180;2023-04-03T03:35:53;6.40;66.20
70456;DHT22;57916;51.996;5.180;2023-04-03T03:38:21;6.40;66.20
70456;DHT22;57916;51.996;5.180;2023-04-03T03:40:50;6.50;66.30
70456;DHT22;57916;51.996;5.180;2023-04-03T03:43:19;6.60;65.80
70456;DHT22;57916;51.996;5.180;2023-04-03T03:45:52;6.70;65.70
70456;DHT22;57916;51.996;5.180;2023-04-03T03:48:22;6.70;65.50
70456;DHT22;57916;51.996;5.180;2023-04-03T03:50:49;6.80;65.10
70456;DHT22;57916;51.996;5.180;2023-04-03T03:53:18;6.70;65.00
70456;DHT22;57916;51.996;5.180;2023-04-03T03:55:47;6.70;65.00
70456;DHT22;57916;51.996;5.180;2023-04-03T03:58:15;6.70;65.20
70456;DHT22;57916;51.996;5.180;2023-04-03T04:00:42;6.70;65.10
70456;DHT22;57916;51.996;5.180;2023-04-03T04:03:10;6.80;65.20
70456;DHT22;57916;51.996;5.180;2023-04-03T04:05:37;6.70;64.90
70456;DHT22;57916;51.996;5.180;2023-04-03T04:08:05;6.70;65.10
70456;DHT22;57916;51.996;5.180;2023-04-03T04:10:34;6.60;65.20
70456;DHT22;57916;51.996;5.180;2023-04-03T04:13:01;6.60;65.20
70456;DHT22;57916;51.996;5.180;2023-04-03T04:15:28;6.60;65.50
70456;DHT22;57916;51.996;5.180;2023-04-03T04:17:56;6.70;65.50
70456;DHT22;57916;51.996;5.180;2023-04-03T04:20:24;6.60;65.30
70456;DHT22;57916;51.996;5.180;2023-04-03T04:22:52;6.50;65.30
70456;DHT22;57916;51.996;5.180;2023-04-03T04:25:20;6.40;65.60
70456;DHT22;57916;51.996;5.180;2023-04-03T04:27:47;6.40;65.90
70456;DHT22;57916;51.996;5.180;2023-04-03T04:30:14;6.40;66.20
70456;DHT22;57916;51.996;5.180;2023-04-03T04:32:44;6.40;66.20
70456;DHT22;57916;51.996;5.180;2023-04-03T04:35:11;6.40;66.10
70456;DHT22;57916;51.996;5.180;2023-04-03T04:37:43;6.40;66.10
70456;DHT22;57916;51.996;5.180;2023-04-03T04:40:11;6.50;66.00
70456;DHT22;57916;51.996;5.180;2023-04-03T04:42:38;6.60;65.70
70456;DHT22;57916;51.996;5.180;2023-04-03T04:45:06;6.60;65.80
70456;DHT22;57916;51.996;5.180;2023-04-03T04:47:35;6.60;65.60
70456;DHT22;57916;51.996;5.180;2023-04-03T04:50:03;6.60;65.50
70456;DHT22;57916;51.996;5.180;2023-04-03T04:52:31;6.60;65.40
70456;DHT22;57916;51.996;5.180;2023-04-03T04:54:59;6.60;65.50
70456;DHT22;57916;51.996;5.180;2023-04-03T04:57:27;6.70;66.40
70456;DHT22;57916;51.996;5.180;2023-04-03T04:59:56;6.70;65.20
70456;DHT22;57916;51.996;5.180;2023-04-03T05:02:23;6.60;65.30
70456;DHT22;57916;51.996;5.180;2023-04-03T05:04:50;6.50;65.20
70456;DHT22;57916;51.996;5.180;2023-04-03T05:07:23;6.40;65.50
70456;DHT22;57916;51.996;5.180;2023-04-03T05:09:50;6.30;65.80
70456;DHT22;57916;51.996;5.180;2023-04-03T05:12:17;6.20;66.10
70456;DHT22;57916;51.996;5.180;2023-04-03T05:14:51;6.10;66.20
70456;DHT22;57916;51.996;5.180;2023-04-03T05:17:19;6.00;66.70
70456;DHT22;57916;51.996;5.180;2023-04-03T05:19:49;6.00;66.70
70456;DHT22;57916;51.996;5.180;2023-04-03T05:22:19;5.90;66.80
70456;DHT22;57916;51.996;5.180;2023-04-03T05:24:47;5.90;67.10
70456;DHT22;57916;51.996;5.180;2023-04-03T05:27:15;5.80;67.20
70456;DHT22;57916;51.996;5.180;2023-04-03T05:29:47;5.80;67.40
70456;DHT22;57916;51.996;5.180;2023-04-03T05:32:19;5.80;67.80
70456;DHT22;57916;51.996;5.180;2023-04-03T05:34:51;5.80;68.00
70456;DHT22;57916;51.996;5.180;2023-04-03T05:37:19;5.90;67.90
70456;DHT22;57916;51.996;5.180;2023-04-03T05:39:46;5.90;68.00
70456;DHT22;57916;51.996;5.180;2023-04-03T05:42:13;6.00;68.00
70456;DHT22;57916;51.996;5.180;2023-04-03T05:44:42;6.10;68.60
70456;DHT22;57916;51.996;5.180;2023-04-03T05:47:09;6.20;68.70
70456;DHT22;57916;51.996;5.180;2023-04-03T05:49:36;6.50;68.30
70456;DHT22;57916;51.996;5.180;2023-04-03T05:54:44;7.20;66.80
70456;DHT22;57916;51.996;5.180;2023-04-03T05:57:18;7.50;66.80
70456;DHT22;57916;51.996;5.180;2023-04-03T05:59:46;7.90;65.00
70456;DHT22;57916;51.996;5.180;2023-04-03T06:02:17;8.20;64.00
70456;DHT22;57916;51.996;5.180;2023-04-03T06:04:46;8.60;63.00
70456;DHT22;57916;51.996;5.180;2023-04-03T06:07:19;8.80;62.10
70456;DHT22;57916;51.996;5.180;2023-04-03T06:09:50;9.10;61.20
70456;DHT22;57916;51.996;5.180;2023-04-03T06:12:18;9.40;60.30
70456;DHT22;57916;51.996;5.180;2023-04-03T06:14:45;9.60;59.50
70456;DHT22;57916;51.996;5.180;2023-04-03T06:17:15;9.70;59.00
70456;DHT22;57916;51.996;5.180;2023-04-03T06:19:42;9.80;58.30
70456;DHT22;57916;51.996;5.180;2023-04-03T06:22:10;9.80;58.10
70456;DHT22;57916;51.996;5.180;2023-04-03T06:24:38;9.80;57.60
70456;DHT22;57916;51.996;5.180;2023-04-03T06:27:05;9.90;57.50
70456;DHT22;57916;51.996;5.180;2023-04-03T06:29:32;9.90;57.30
70456;DHT22;57916;51.996;5.180;2023-04-03T06:31:59;10.10;57.30
70456;DHT22;57916;51.996;5.180;2023-04-03T06:34:26;10.20;56.50
70456;DHT22;57916;51.996;5.180;2023-04-03T06:36:54;10.30;56.10
70456;DHT22;57916;51.996;5.180;2023-04-03T06:39:21;10.50;55.60
70456;DHT22;57916;51.996;5.180;2023-04-03T06:41:50;10.60;55.20
70456;DHT22;57916;51.996;5.180;2023-04-03T06:44:24;10.60;54.70
70456;DHT22;57916;51.996;5.180;2023-04-03T06:46:51;10.60;54.60
70456;DHT22;57916;51.996;5.180;2023-04-03T06:49:18;10.70;54.30
70456;DHT22;57916;51.996;5.180;2023-04-03T06:51:45;10.70;54.20
70456;DHT22;57916;51.996;5.180;2023-04-03T06:54:12;10.60;54.20
70456;DHT22;57916;51.996;5.180;2023-04-03T06:56:39;10.60;54.10
70456;DHT22;57916;51.996;5.180;2023-04-03T06:59:06;10.60;54.20
70456;DHT22;57916;51.996;5.180;2023-04-03T07:01:33;10.60;54.40
70456;DHT22;57916;51.996;5.180;2023-04-03T07:04:00;10.60;54.30
70456;DHT22;57916;51.996;5.180;2023-04-03T07:06:27;10.70;54.40
70456;DHT22;57916;51.996;5.180;2023-04-03T07:08:54;10.60;54.40
70456;DHT22;57916;51.996;5.180;2023-04-03T07:11:24;10.50;54.30
70456;DHT22;57916;51.996;5.180;2023-04-03T07:13:51;10.50;54.70
70456;DHT22;57916;51.996;5.180;2023-04-03T07:16:18;10.30;54.70
70456;DHT22;57916;51.996;5.180;2023-04-03T07:18:45;10.20;55.10
70456;DHT22;57916;51.996;5.180;2023-04-03T07:21:13;10.20;55.40
70456;DHT22;57916;51.996;5.180;2023-04-03T07:23:40;10.20;55.90
70456;DHT22;57916;51.996;5.180;2023-04-03T07:26:07;10.30;55.50
70456;DHT22;57916;51.996;5.180;2023-04-03T07:28:34;10.30;55.00
70456;DHT22;57916;51.996;5.180;2023-04-03T07:31:05;10.40;55.60
70456;DHT22;57916;51.996;5.180;2023-04-03T07:33:35;10.30;54.00
70456;DHT22;57916;51.996;5.180;2023-04-03T07:36:03;10.30;54.90
70456;DHT22;57916;51.996;5.180;2023-04-03T07:38:30;10.40;55.80
70456;DHT22;57916;51.996;5.180;2023-04-03T07:40:57;10.40;55.30
70456;DHT22;57916;51.996;5.180;2023-04-03T07:43:24;10.50;55.00
70456;DHT22;57916;51.996;5.180;2023-04-03T07:45:52;10.50;55.00
70456;DHT22;57916;51.996;5.180;2023-04-03T07:48:25;10.50;55.00
70456;DHT22;57916;51.996;5.180;2023-04-03T07:50:52;10.60;55.20
70456;DHT22;57916;51.996;5.180;2023-04-03T07:53:19;10.70;55.10
70456;DHT22;57916;51.996;5.180;2023-04-03T07:55:47;10.70;54.30
70456;DHT22;57916;51.996;5.180;2023-04-03T07:58:17;10.70;54.50
70456;DHT22;57916;51.996;5.180;2023-04-03T08:00:45;10.70;54.10
70456;DHT22;57916;51.996;5.180;2023-04-03T08:03:13;10.80;53.80
70456;DHT22;57916;51.996;5.180;2023-04-03T08:05:41;10.90;53.90
70456;DHT22;57916;51.996;5.180;2023-04-03T08:08:11;11.00;54.30
70456;DHT22;57916;51.996;5.180;2023-04-03T08:10:38;11.20;53.80
70456;DHT22;57916;51.996;5.180;2023-04-03T08:13:06;11.40;52.90
70456;DHT22;57916;51.996;5.180;2023-04-03T08:15:33;11.60;52.20
70456;DHT22;57916;51.996;5.180;2023-04-03T08:18:00;11.60;51.60
70456;DHT22;57916;51.996;5.180;2023-04-03T08:20:28;11.50;51.10
70456;DHT22;57916;51.996;5.180;2023-04-03T08:22:55;11.60;51.30
70456;DHT22;57916;51.996;5.180;2023-04-03T08:25:22;11.70;51.30
70456;DHT22;57916;51.996;5.180;2023-04-03T08:27:49;11.80;50.30
70456;DHT22;57916;51.996;5.180;2023-04-03T08:30:16;11.90;49.70
70456;DHT22;57916;51.996;5.180;2023-04-03T08:32:44;11.90;49.30
70456;DHT22;57916;51.996;5.180;2023-04-03T08:35:12;11.80;47.70
70456;DHT22;57916;51.996;5.180;2023-04-03T08:37:39;11.80;48.10
70456;DHT22;57916;51.996;5.180;2023-04-03T08:40:11;11.80;47.70
70456;DHT22;57916;51.996;5.180;2023-04-03T08:42:48;11.90;47.90
70456;DHT22;57916;51.996;5.180;2023-04-03T08:48:15;12.30;47.00
70456;DHT22;57916;51.996;5.180;2023-04-03T08:50:46;12.60;45.80
70456;DHT22;57916;51.996;5.180;2023-04-03T08:53:16;12.60;44.80
70456;DHT22;57916;51.996;5.180;2023-04-03T08:55:46;12.50;43.10
70456;DHT22;57916;51.996;5.180;2023-04-03T08:58:19;12.70;42.70
70456;DHT22;57916;51.996;5.180;2023-04-03T09:00:54;12.80;42.30
70456;DHT22;57916;51.996;5.180;2023-04-03T09:03:23;12.90;42.50
70456;DHT22;57916;51.996;5.180;2023-04-03T09:05:57;12.90;40.40
70456;DHT22;57916;51.996;5.180;2023-04-03T09:11:26;13.00;39.60
70456;DHT22;57916;51.996;5.180;2023-04-03T09:17:06;13.10;37.70
70456;DHT22;57916;51.996;5.180;2023-04-03T09:22:32;13.50;37.90
70456;DHT22;57916;51.996;5.180;2023-04-03T09:25:20;13.60;37.90
70456;DHT22;57916;51.996;5.180;2023-04-03T09:27:50;13.50;37.60
70456;DHT22;57916;51.996;5.180;2023-04-03T09:30:23;13.40;37.00
70456;DHT22;57916;51.996;5.180;2023-04-03T09:32:52;13.40;36.80
70456;DHT22;57916;51.996;5.180;2023-04-03T09:35:33;13.40;33.40
70456;DHT22;57916;51.996;5.180;2023-04-03T09:38:15;13.30;32.50
70456;DHT22;57916;51.996;5.180;2023-04-03T09:41:03;13.40;31.90
70456;DHT22;57916;51.996;5.180;2023-04-03T09:43:33;13.40;32.20
70456;DHT22;57916;51.996;5.180;2023-04-03T09:46:24;13.70;33.10
70456;DHT22;57916;51.996;5.180;2023-04-03T09:49:04;13.90;32.80
70456;DHT22;57916;51.996;5.180;2023-04-03T09:51:36;13.90;33.90
70456;DHT22;57916;51.996;5.180;2023-04-03T09:54:24;14.10;31.10
70456;DHT22;57916;51.996;5.180;2023-04-03T09:56:53;14.50;30.50
70456;DHT22;57916;51.996;5.180;2023-04-03T09:59:22;14.60;30.50
70456;DHT22;57916;51.996;5.180;2023-04-03T10:05:37;14.40;29.10
70456;DHT22;57916;51.996;5.180;2023-04-03T10:08:10;14.30;29.20
70456;DHT22;57916;51.996;5.180;2023-04-03T10:10:37;14.40;29.50
70456;DHT22;57916;51.996;5.180;2023-04-03T10:13:07;14.40;29.00
70456;DHT22;57916;51.996;5.180;2023-04-03T10:15:47;14.50;28.80
70456;DHT22;57916;51.996;5.180;2023-04-03T10:21:15;14.90;29.20
70456;DHT22;57916;51.996;5.180;2023-04-03T10:26:59;15.20;26.60
70456;DHT22;57916;51.996;5.180;2023-04-03T10:32:47;14.70;26.20
70456;DHT22;57916;51.996;5.180;2023-04-03T10:35:40;14.60;27.10
70456;DHT22;57916;51.996;5.180;2023-04-03T10:38:29;14.60;27.30
70456;DHT22;57916;51.996;5.180;2023-04-03T10:44:04;14.40;27.90
70456;DHT22;57916;51.996;5.180;2023-04-03T10:46:41;14.50;27.30
70456;DHT22;57916;51.996;5.180;2023-04-03T10:49:19;14.80;26.60
70456;DHT22;57916;51.996;5.180;2023-04-03T10:51:58;15.00;26.90
70456;DHT22;57916;51.996;5.180;2023-04-03T10:54:38;15.20;25.90
70456;DHT22;57916;51.996;5.180;2023-04-03T10:57:10;15.40;25.70
70456;DHT22;57916;51.996;5.180;2023-04-03T10:59:59;15.40;25.10
70456;DHT22;57916;51.996;5.180;2023-04-03T11:02:36;15.50;24.90
70456;DHT22;57916;51.996;5.180;2023-04-03T11:05:07;15.40;24.70
70456;DHT22;57916;51.996;5.180;2023-04-03T11:07:40;15.30;25.60
70456;DHT22;57916;51.996;5.180;2023-04-03T11:10:31;15.30;25.70
70456;DHT22;57916;51.996;5.180;2023-04-03T11:13:10;15.30;25.90
70456;DHT22;57916;51.996;5.180;2023-04-03T11:15:39;15.40;26.40
70456;DHT22;57916;51.996;5.180;2023-04-03T11:18:11;15.50;26.30
70456;DHT22;57916;51.996;5.180;2023-04-03T11:20:42;15.30;26.80
70456;DHT22;57916;51.996;5.180;2023-04-03T11:23:19;15.10;26.20
70456;DHT22;57916;51.996;5.180;2023-04-03T11:25:51;14.90;26.20
70456;DHT22;57916;51.996;5.180;2023-04-03T11:28:19;15.00;26.70
70456;DHT22;57916;51.996;5.180;2023-04-03T11:34:05;15.10;27.10
70456;DHT22;57916;51.996;5.180;2023-04-03T11:36:46;15.20;27.80
70456;DHT22;57916;51.996;5.180;2023-04-03T11:39:31;15.40;26.70
70456;DHT22;57916;51.996;5.180;2023-04-03T11:47:57;15.60;28.10
70456;DHT22;57916;51.996;5.180;2023-04-03T11:55:56;15.50;29.40
70456;DHT22;57916;51.996;5.180;2023-04-03T11:58:32;15.70;28.60
70456;DHT22;57916;51.996;5.180;2023-04-03T12:01:03;15.90;27.60
70456;DHT22;57916;51.996;5.180;2023-04-03T12:13:41;15.60;29.20
70456;DHT22;57916;51.996;5.180;2023-04-03T12:35:14;16.10;28.00
70456;DHT22;57916;51.996;5.180;2023-04-03T12:44:04;15.40;28.70
70456;DHT22;57916;51.996;5.180;2023-04-03T12:46:47;15.20;29.40
70456;DHT22;57916;51.996;5.180;2023-04-03T12:51:55;15.10;28.60
70456;DHT22;57916;51.996;5.180;2023-04-03T12:54:27;15.10;29.80
70456;DHT22;57916;51.996;5.180;2023-04-03T12:59:42;15.00;28.20
70456;DHT22;57916;51.996;5.180;2023-04-03T13:04:44;14.60;28.70
70456;DHT22;57916;51.996;5.180;2023-04-03T13:07:30;14.40;29.00
70456;DHT22;57916;51.996;5.180;2023-04-03T13:12:32;14.20;29.00
70456;DHT22;57916;51.996;5.180;2023-04-03T13:15:02;14.10;29.70
70456;DHT22;57916;51.996;5.180;2023-04-03T13:17:39;14.00;30.00
70456;DHT22;57916;51.996;5.180;2023-04-03T13:20:18;14.00;30.20
70456;DHT22;57916;51.996;5.180;2023-04-03T13:22:51;13.90;30.70
70456;DHT22;57916;51.996;5.180;2023-04-03T13:25:23;13.80;30.20
70456;DHT22;57916;51.996;5.180;2023-04-03T13:27:51;13.70;29.70
70456;DHT22;57916;51.996;5.180;2023-04-03T13:30:34;13.70;30.40
70456;DHT22;57916;51.996;5.180;2023-04-03T13:33:06;13.60;30.00
70456;DHT22;57916;51.996;5.180;2023-04-03T13:35:45;13.60;30.10
70456;DHT22;57916;51.996;5.180;2023-04-03T13:40:57;13.40;33.00
70456;DHT22;57916;51.996;5.180;2023-04-03T13:43:33;13.40;31.70
70456;DHT22;57916;51.996;5.180;2023-04-03T13:46:26;13.50;31.80
70456;DHT22;57916;51.996;5.180;2023-04-03T13:48:56;13.50;31.80
70456;DHT22;57916;51.996;5.180;2023-04-03T13:51:26;13.60;31.70
70456;DHT22;57916;51.996;5.180;2023-04-03T13:53:57;13.50;32.60
70456;DHT22;57916;51.996;5.180;2023-04-03T13:56:35;13.60;33.10
70456;DHT22;57916;51.996;5.180;2023-04-03T14:07:12;13.50;32.80
70456;DHT22;57916;51.996;5.180;2023-04-03T14:09:39;13.50;33.20
70456;DHT22;57916;51.996;5.180;2023-04-03T14:12:11;13.50;32.50
70456;DHT22;57916;51.996;5.180;2023-04-03T14:14:56;13.60;32.40
70456;DHT22;57916;51.996;5.180;2023-04-03T14:17:25;13.60;32.20
70456;DHT22;57916;51.996;5.180;2023-04-03T14:19:54;13.60;32.90
70456;DHT22;57916;51.996;5.180;2023-04-03T14:22:24;13.60;32.60
70456;DHT22;57916;51.996;5.180;2023-04-03T14:24:52;13.60;31.60
70456;DHT22;57916;51.996;5.180;2023-04-03T14:27:33;13.60;31.70
70456;DHT22;57916;51.996;5.180;2023-04-03T14:30:01;13.70;32.60
70456;DHT22;57916;51.996;5.180;2023-04-03T14:32:30;13.70;32.60
70456;DHT22;57916;51.996;5.180;2023-04-03T14:34:58;13.80;32.20
70456;DHT22;57916;51.996;5.180;2023-04-03T14:37:28;13.70;32.00
70456;DHT22;57916;51.996;5.180;2023-04-03T14:39:58;13.60;31.70
70456;DHT22;57916;51.996;5.180;2023-04-03T14:42:30;13.60;32.50
70456;DHT22;57916;51.996;5.180;2023-04-03T14:44:59;13.60;33.10
70456;DHT22;57916;51.996;5.180;2023-04-03T14:47:28;13.60;32.30
70456;DHT22;57916;51.996;5.180;2023-04-03T14:50:00;13.50;32.70
70456;DHT22;57916;51.996;5.180;2023-04-03T14:52:34;13.40;32.70
70456;DHT22;57916;51.996;5.180;2023-04-03T14:55:03;13.40;32.40
70456;DHT22;57916;51.996;5.180;2023-04-03T14:57:30;13.40;33.70
70456;DHT22;57916;51.996;5.180;2023-04-03T14:59:57;13.40;33.30
70456;DHT22;57916;51.996;5.180;2023-04-03T15:02:36;13.40;32.90
70456;DHT22;57916;51.996;5.180;2023-04-03T15:05:06;13.40;32.60
70456;DHT22;57916;51.996;5.180;2023-04-03T15:07:36;13.30;32.90
70456;DHT22;57916;51.996;5.180;2023-04-03T15:10:25;13.30;33.20
70456;DHT22;57916;51.996;5.180;2023-04-03T15:12:53;13.20;33.60
70456;DHT22;57916;51.996;5.180;2023-04-03T15:15:22;13.20;33.80
70456;DHT22;57916;51.996;5.180;2023-04-03T15:17:52;13.20;34.20
70456;DHT22;57916;51.996;5.180;2023-04-03T15:20:27;13.30;35.00
70456;DHT22;57916;51.996;5.180;2023-04-03T15:22:57;13.30;33.70
70456;DHT22;57916;51.996;5.180;2023-04-03T15:25:27;13.40;33.10
70456;DHT22;57916;51.996;5.180;2023-04-03T15:27:55;13.40;32.60
70456;DHT22;57916;51.996;5.180;2023-04-03T15:30:22;13.30;32.50
70456;DHT22;57916;51.996;5.180;2023-04-03T15:32:49;13.20;32.60
70456;DHT22;57916;51.996;5.180;2023-04-03T15:35:17;13.20;34.10
70456;DHT22;57916;51.996;5.180;2023-04-03T15:37:43;13.20;34.20
70456;DHT22;57916;51.996;5.180;2023-04-03T15:40:11;13.20;34.10
70456;DHT22;57916;51.996;5.180;2023-04-03T15:42:38;13.20;35.10
70456;DHT22;57916;51.996;5.180;2023-04-03T15:45:06;13.20;35.10
70456;DHT22;57916;51.996;5.180;2023-04-03T15:47:33;13.20;34.60
70456;DHT22;57916;51.996;5.180;2023-04-03T15:50:00;13.20;35.10
70456;DHT22;57916;51.996;5.180;2023-04-03T15:52:27;13.20;34.60
70456;DHT22;57916;51.996;5.180;2023-04-03T15:54:54;13.20;34.90
70456;DHT22;57916;51.996;5.180;2023-04-03T15:57:21;13.10;35.10
70456;DHT22;57916;51.996;5.180;2023-04-03T15:59:52;13.20;35.90
70456;DHT22;57916;51.996;5.180;2023-04-03T16:02:19;13.20;35.20
70456;DHT22;57916;51.996;5.180;2023-04-03T16:04:48;13.10;34.90
70456;DHT22;57916;51.996;5.180;2023-04-03T16:07:15;13.00;34.90
70456;DHT22;57916;51.996;5.180;2023-04-03T16:09:42;13.00;35.00
70456;DHT22;57916;51.996;5.180;2023-04-03T16:12:08;12.90;35.00
70456;DHT22;57916;51.996;5.180;2023-04-03T16:14:35;12.90;35.70
70456;DHT22;57916;51.996;5.180;2023-04-03T16:17:02;12.90;36.00
70456;DHT22;57916;51.996;5.180;2023-04-03T16:19:29;12.90;36.10
70456;DHT22;57916;51.996;5.180;2023-04-03T16:21:57;12.90;35.60
70456;DHT22;57916;51.996;5.180;2023-04-03T16:24:24;12.90;35.70
70456;DHT22;57916;51.996;5.180;2023-04-03T16:26:51;12.90;35.80
70456;DHT22;57916;51.996;5.180;2023-04-03T16:29:20;12.90;36.70
70456;DHT22;57916;51.996;5.180;2023-04-03T16:31:47;12.80;37.10
70456;DHT22;57916;51.996;5.180;2023-04-03T16:34:14;12.80;37.90
70456;DHT22;57916;51.996;5.180;2023-04-03T16:36:41;12.80;37.30
70456;DHT22;57916;51.996;5.180;2023-04-03T16:39:08;12.70;36.90
70456;DHT22;57916;51.996;5.180;2023-04-03T16:41:36;12.70;37.10
70456;DHT22;57916;51.996;5.180;2023-04-03T16:44:03;12.60;38.40
70456;DHT22;57916;51.996;5.180;2023-04-03T16:46:30;12.60;38.80
70456;DHT22;57916;51.996;5.180;2023-04-03T16:48:57;12.60;38.50
70456;DHT22;57916;51.996;5.180;2023-04-03T16:51:23;12.60;38.00
70456;DHT22;57916;51.996;5.180;2023-04-03T16:53:51;12.50;37.80
70456;DHT22;57916;51.996;5.180;2023-04-03T16:56:18;12.40;37.90
70456;DHT22;57916;51.996;5.180;2023-04-03T16:58:45;12.30;37.90
70456;DHT22;57916;51.996;5.180;2023-04-03T17:01:15;12.30;38.80
70456;DHT22;57916;51.996;5.180;2023-04-03T17:03:43;12.30;39.00
70456;DHT22;57916;51.996;5.180;2023-04-03T17:06:12;12.20;38.70
70456;DHT22;57916;51.996;5.180;2023-04-03T17:08:43;12.20;39.10
70456;DHT22;57916;51.996;5.180;2023-04-03T17:11:25;12.10;39.50
70456;DHT22;57916;51.996;5.180;2023-04-03T17:13:53;12.10;39.00
70456;DHT22;57916;51.996;5.180;2023-04-03T17:16:20;12.00;39.70
70456;DHT22;57916;51.996;5.180;2023-04-03T17:18:47;12.00;40.10
70456;DHT22;57916;51.996;5.180;2023-04-03T17:21:15;12.00;39.80
70456;DHT22;57916;51.996;5.180;2023-04-03T17:23:46;11.90;40.00
70456;DHT22;57916;51.996;5.180;2023-04-03T17:26:13;11.80;39.80
70456;DHT22;57916;51.996;5.180;2023-04-03T17:28:41;11.80;40.20
70456;DHT22;57916;51.996;5.180;2023-04-03T17:31:10;11.70;40.40
70456;DHT22;57916;51.996;5.180;2023-04-03T17:33:37;11.60;40.80
70456;DHT22;57916;51.996;5.180;2023-04-03T17:36:04;11.60;41.00
70456;DHT22;57916;51.996;5.180;2023-04-03T17:38:31;11.60;41.30
70456;DHT22;57916;51.996;5.180;2023-04-03T17:41:03;11.50;41.00
70456;DHT22;57916;51.996;5.180;2023-04-03T17:43:31;11.50;41.30
70456;DHT22;57916;51.996;5.180;2023-04-03T17:46:03;11.40;41.30